Mason City Municipal Airport Mason City US
ICAO: KMCW
IATA: MCW
Category: Medium
Scheduled Services: No

Elevation: 1213 ft
TransAlt. 18000 ft.

Airport Communications:
ASOS:120.3
MINNEAPOLIS CNTR:127.3
FORT DODGE RDO:122.6
CTAF/UNICOM:123

KMCW Zoom In..

Runways:

(A) RW 12 length 5502 ft width 150 ft
---- / hdg 120

(B) RW 18 length 6501 ft width 150 ft
---- / hdg 175

(C) RW 30 length 5502 ft width 150 ft
---- / hdg 300

(D) RW 36 length 6501 ft width 150 ft
ILS 109.50 / hdg 355

Location; KMCW
Day. 22 / Time. 03.53 Zulu
* Altimeter: 29.83
* Temperature: 02° c. 35.6°f.
* Wind from: 050° Speed 11 kn.
Dewpoint: 00° c.
Visibility: 5 Statute Miles.
Clouds: Few 1400 ft.
Clouds: Overcast 2000 ft.
Conditions: Mist.

KMCW 220353Z AUTO 05011KT 5SM BR FEW014 OVC020 02/00 A2983 RMK AO2 SLP107 T00170000


Wind From 050°
Speed 11 kn.

jpsM music video
CHECK IT OUT

jpsM - It Moves..

 
jpsmedia.com for Web Design  worldairports.se 2018   terms of use